sensor_id;sensor_type;location;lat;lon;timestamp;P1;durP1;ratioP1;P2;durP2;ratioP2
28802;SDS011;15949;55.656;37.422;2023-01-15T00:03:06;24.40;;;12.68;;
28802;SDS011;15949;55.656;37.422;2023-01-15T00:08:11;26.77;;;13.82;;
28802;SDS011;15949;55.656;37.422;2023-01-15T00:13:17;22.63;;;13.27;;
28802;SDS011;15949;55.656;37.422;2023-01-15T00:18:23;26.83;;;13.35;;
28802;SDS011;15949;55.656;37.422;2023-01-15T00:23:28;22.42;;;13.10;;
28802;SDS011;15949;55.656;37.422;2023-01-15T00:28:53;23.15;;;12.90;;
28802;SDS011;15949;55.656;37.422;2023-01-15T00:33:59;30.20;;;13.60;;
28802;SDS011;15949;55.656;37.422;2023-01-15T00:39:04;25.40;;;12.90;;
28802;SDS011;15949;55.656;37.422;2023-01-15T00:44:10;23.65;;;13.30;;
28802;SDS011;15949;55.656;37.422;2023-01-15T00:49:16;29.67;;;13.52;;
28802;SDS011;15949;55.656;37.422;2023-01-15T00:54:22;28.27;;;13.15;;
28802;SDS011;15949;55.656;37.422;2023-01-15T00:59:27;29.13;;;13.20;;
28802;SDS011;15949;55.656;37.422;2023-01-15T01:04:34;32.70;;;12.43;;
28802;SDS011;15949;55.656;37.422;2023-01-15T01:09:39;21.02;;;13.35;;
28802;SDS011;15949;55.656;37.422;2023-01-15T01:14:45;27.30;;;13.70;;
28802;SDS011;15949;55.656;37.422;2023-01-15T01:19:51;22.25;;;12.90;;
28802;SDS011;15949;55.656;37.422;2023-01-15T01:24:56;25.48;;;13.07;;
28802;SDS011;15949;55.656;37.422;2023-01-15T01:30:02;27.30;;;12.95;;
28802;SDS011;15949;55.656;37.422;2023-01-15T01:35:08;25.45;;;12.48;;
28802;SDS011;15949;55.656;37.422;2023-01-15T01:40:14;28.45;;;12.68;;
28802;SDS011;15949;55.656;37.422;2023-01-15T01:45:21;26.20;;;12.38;;
28802;SDS011;15949;55.656;37.422;2023-01-15T01:50:31;24.83;;;13.43;;
28802;SDS011;15949;55.656;37.422;2023-01-15T01:55:39;30.38;;;12.98;;
28802;SDS011;15949;55.656;37.422;2023-01-15T02:00:45;32.20;;;13.38;;
28802;SDS011;15949;55.656;37.422;2023-01-15T02:05:53;26.17;;;12.32;;
28802;SDS011;15949;55.656;37.422;2023-01-15T02:11:01;23.25;;;12.38;;
28802;SDS011;15949;55.656;37.422;2023-01-15T02:16:14;30.88;;;12.25;;
28802;SDS011;15949;55.656;37.422;2023-01-15T02:32:02;25.45;;;13.00;;
28802;SDS011;15949;55.656;37.422;2023-01-15T02:37:13;31.98;;;12.70;;
28802;SDS011;15949;55.656;37.422;2023-01-15T02:42:25;29.13;;;13.25;;
28802;SDS011;15949;55.656;37.422;2023-01-15T02:47:33;27.38;;;13.38;;
28802;SDS011;15949;55.656;37.422;2023-01-15T02:52:43;31.85;;;13.75;;
28802;SDS011;15949;55.656;37.422;2023-01-15T02:57:54;30.90;;;13.25;;
28802;SDS011;15949;55.656;37.422;2023-01-15T03:03:10;31.65;;;13.48;;
28802;SDS011;15949;55.656;37.422;2023-01-15T03:08:20;31.38;;;13.77;;
28802;SDS011;15949;55.656;37.422;2023-01-15T03:13:29;28.50;;;13.48;;
28802;SDS011;15949;55.656;37.422;2023-01-15T03:18:48;28.45;;;14.00;;
28802;SDS011;15949;55.656;37.422;2023-01-15T03:23:57;28.55;;;14.88;;
28802;SDS011;15949;55.656;37.422;2023-01-15T03:29:06;35.63;;;14.23;;
28802;SDS011;15949;55.656;37.422;2023-01-15T03:34:13;27.90;;;13.95;;
28802;SDS011;15949;55.656;37.422;2023-01-15T03:39:19;31.08;;;13.82;;
28802;SDS011;15949;55.656;37.422;2023-01-15T03:44:34;27.30;;;14.00;;
28802;SDS011;15949;55.656;37.422;2023-01-15T03:55:18;31.33;;;13.65;;
28802;SDS011;15949;55.656;37.422;2023-01-15T04:00:33;41.13;;;14.25;;
28802;SDS011;15949;55.656;37.422;2023-01-15T04:05:42;30.23;;;14.65;;
28802;SDS011;15949;55.656;37.422;2023-01-15T04:10:58;29.55;;;14.32;;
28802;SDS011;15949;55.656;37.422;2023-01-15T04:16:05;35.75;;;15.10;;
28802;SDS011;15949;55.656;37.422;2023-01-15T04:21:11;41.47;;;17.75;;
28802;SDS011;15949;55.656;37.422;2023-01-15T04:26:17;71.10;;;26.95;;
28802;SDS011;15949;55.656;37.422;2023-01-15T04:31:23;43.55;;;21.40;;
28802;SDS011;15949;55.656;37.422;2023-01-15T04:36:28;39.45;;;15.30;;
28802;SDS011;15949;55.656;37.422;2023-01-15T04:41:35;35.15;;;15.05;;
28802;SDS011;15949;55.656;37.422;2023-01-15T04:46:59;37.45;;;15.23;;
28802;SDS011;15949;55.656;37.422;2023-01-15T04:52:05;37.90;;;15.30;;
28802;SDS011;15949;55.656;37.422;2023-01-15T04:57:11;41.80;;;16.20;;
28802;SDS011;15949;55.656;37.422;2023-01-15T05:02:16;39.08;;;16.65;;
28802;SDS011;15949;55.656;37.422;2023-01-15T05:07:22;41.13;;;17.13;;
28802;SDS011;15949;55.656;37.422;2023-01-15T05:12:28;35.28;;;17.27;;
28802;SDS011;15949;55.656;37.422;2023-01-15T05:17:33;43.40;;;17.60;;
28802;SDS011;15949;55.656;37.422;2023-01-15T05:22:39;41.58;;;15.98;;
28802;SDS011;15949;55.656;37.422;2023-01-15T05:27:45;38.95;;;15.05;;
28802;SDS011;15949;55.656;37.422;2023-01-15T05:32:51;40.17;;;15.52;;
28802;SDS011;15949;55.656;37.422;2023-01-15T05:37:56;42.10;;;15.48;;
28802;SDS011;15949;55.656;37.422;2023-01-15T05:43:02;34.85;;;15.45;;
28802;SDS011;15949;55.656;37.422;2023-01-15T05:48:08;47.45;;;15.73;;
28802;SDS011;15949;55.656;37.422;2023-01-15T05:53:14;47.53;;;16.50;;
28802;SDS011;15949;55.656;37.422;2023-01-15T05:58:19;42.63;;;16.15;;
28802;SDS011;15949;55.656;37.422;2023-01-15T06:03:25;41.67;;;15.88;;
28802;SDS011;15949;55.656;37.422;2023-01-15T06:08:31;48.78;;;17.52;;
28802;SDS011;15949;55.656;37.422;2023-01-15T06:13:37;52.40;;;17.08;;
28802;SDS011;15949;55.656;37.422;2023-01-15T06:18:44;39.20;;;15.43;;
28802;SDS011;15949;55.656;37.422;2023-01-15T06:23:51;48.25;;;17.80;;
28802;SDS011;15949;55.656;37.422;2023-01-15T06:28:57;42.92;;;16.25;;
28802;SDS011;15949;55.656;37.422;2023-01-15T06:34:03;41.50;;;15.27;;
28802;SDS011;15949;55.656;37.422;2023-01-15T06:39:09;42.60;;;14.93;;
28802;SDS011;15949;55.656;37.422;2023-01-15T06:44:16;44.35;;;14.95;;
28802;SDS011;15949;55.656;37.422;2023-01-15T06:49:40;48.47;;;15.93;;
28802;SDS011;15949;55.656;37.422;2023-01-15T06:54:46;53.95;;;16.85;;
28802;SDS011;15949;55.656;37.422;2023-01-15T06:59:52;46.30;;;15.90;;
28802;SDS011;15949;55.656;37.422;2023-01-15T07:04:58;51.95;;;16.27;;
28802;SDS011;15949;55.656;37.422;2023-01-15T07:10:04;42.78;;;16.60;;
28802;SDS011;15949;55.656;37.422;2023-01-15T07:15:10;49.38;;;16.52;;
28802;SDS011;15949;55.656;37.422;2023-01-15T07:20:16;55.17;;;16.80;;
28802;SDS011;15949;55.656;37.422;2023-01-15T07:25:25;45.70;;;16.45;;
28802;SDS011;15949;55.656;37.422;2023-01-15T07:30:31;42.38;;;16.65;;
28802;SDS011;15949;55.656;37.422;2023-01-15T07:35:37;42.45;;;16.73;;
28802;SDS011;15949;55.656;37.422;2023-01-15T07:40:43;37.67;;;16.67;;
28802;SDS011;15949;55.656;37.422;2023-01-15T07:45:48;39.35;;;16.75;;
28802;SDS011;15949;55.656;37.422;2023-01-15T07:51:12;42.45;;;15.88;;
28802;SDS011;15949;55.656;37.422;2023-01-15T07:56:18;44.08;;;16.98;;
28802;SDS011;15949;55.656;37.422;2023-01-15T08:01:23;43.55;;;16.08;;
28802;SDS011;15949;55.656;37.422;2023-01-15T08:06:29;42.58;;;16.67;;
28802;SDS011;15949;55.656;37.422;2023-01-15T08:11:34;41.20;;;16.90;;
28802;SDS011;15949;55.656;37.422;2023-01-15T08:16:59;43.78;;;17.13;;
28802;SDS011;15949;55.656;37.422;2023-01-15T08:22:04;41.67;;;16.25;;
28802;SDS011;15949;55.656;37.422;2023-01-15T08:27:10;46.97;;;17.85;;
28802;SDS011;15949;55.656;37.422;2023-01-15T08:32:17;40.88;;;17.10;;
28802;SDS011;15949;55.656;37.422;2023-01-15T08:37:23;37.13;;;15.93;;
28802;SDS011;15949;55.656;37.422;2023-01-15T08:42:29;36.38;;;15.95;;
28802;SDS011;15949;55.656;37.422;2023-01-15T08:47:35;32.85;;;15.55;;
28802;SDS011;15949;55.656;37.422;2023-01-15T08:52:41;38.05;;;16.00;;
28802;SDS011;15949;55.656;37.422;2023-01-15T08:57:46;41.33;;;16.10;;
28802;SDS011;15949;55.656;37.422;2023-01-15T09:02:52;35.17;;;15.40;;
28802;SDS011;15949;55.656;37.422;2023-01-15T09:07:58;32.58;;;16.88;;
28802;SDS011;15949;55.656;37.422;2023-01-15T09:13:03;38.65;;;15.77;;
28802;SDS011;15949;55.656;37.422;2023-01-15T09:18:09;33.67;;;16.17;;
28802;SDS011;15949;55.656;37.422;2023-01-15T09:23:16;41.53;;;16.70;;
28802;SDS011;15949;55.656;37.422;2023-01-15T09:28:22;38.08;;;15.35;;
28802;SDS011;15949;55.656;37.422;2023-01-15T09:33:28;34.42;;;14.93;;
28802;SDS011;15949;55.656;37.422;2023-01-15T09:38:33;34.00;;;15.73;;
28802;SDS011;15949;55.656;37.422;2023-01-15T09:59:35;38.30;;;14.18;;
28802;SDS011;15949;55.656;37.422;2023-01-15T10:04:44;31.08;;;13.68;;
28802;SDS011;15949;55.656;37.422;2023-01-15T10:15:05;31.85;;;13.75;;
28802;SDS011;15949;55.656;37.422;2023-01-15T10:25:26;39.97;;;17.27;;
28802;SDS011;15949;55.656;37.422;2023-01-15T10:30:53;37.30;;;15.38;;
28802;SDS011;15949;55.656;37.422;2023-01-15T10:36:00;34.95;;;13.27;;
28802;SDS011;15949;55.656;37.422;2023-01-15T10:46:44;24.60;;;11.40;;
28802;SDS011;15949;55.656;37.422;2023-01-15T10:51:56;25.67;;;11.30;;
28802;SDS011;15949;55.656;37.422;2023-01-15T11:02:53;24.02;;;11.63;;
28802;SDS011;15949;55.656;37.422;2023-01-15T11:08:09;30.08;;;11.77;;
28802;SDS011;15949;55.656;37.422;2023-01-15T11:13:24;26.10;;;11.75;;
28802;SDS011;15949;55.656;37.422;2023-01-15T11:18:49;26.88;;;10.80;;
28802;SDS011;15949;55.656;37.422;2023-01-15T11:24:14;24.25;;;10.30;;
28802;SDS011;15949;55.656;37.422;2023-01-15T11:29:27;30.50;;;10.60;;
28802;SDS011;15949;55.656;37.422;2023-01-15T11:34:37;19.98;;;9.63;;
28802;SDS011;15949;55.656;37.422;2023-01-15T11:39:50;36.65;;;11.05;;
28802;SDS011;15949;55.656;37.422;2023-01-15T11:44:58;27.92;;;9.70;;
28802;SDS011;15949;55.656;37.422;2023-01-15T11:50:22;26.02;;;10.45;;
28802;SDS011;15949;55.656;37.422;2023-01-15T11:55:54;24.75;;;9.82;;
28802;SDS011;15949;55.656;37.422;2023-01-15T12:01:05;25.65;;;11.10;;
28802;SDS011;15949;55.656;37.422;2023-01-15T12:06:11;28.20;;;11.25;;
28802;SDS011;15949;55.656;37.422;2023-01-15T12:11:22;23.13;;;9.85;;
28802;SDS011;15949;55.656;37.422;2023-01-15T12:27:42;19.52;;;10.18;;
28802;SDS011;15949;55.656;37.422;2023-01-15T12:38:26;24.90;;;9.98;;
28802;SDS011;15949;55.656;37.422;2023-01-15T12:43:42;20.50;;;10.05;;
28802;SDS011;15949;55.656;37.422;2023-01-15T12:54:45;25.25;;;10.70;;
28802;SDS011;15949;55.656;37.422;2023-01-15T12:59:57;18.83;;;9.25;;
28802;SDS011;15949;55.656;37.422;2023-01-15T13:05:19;21.15;;;8.90;;
28802;SDS011;15949;55.656;37.422;2023-01-15T13:10:31;34.53;;;9.10;;
28802;SDS011;15949;55.656;37.422;2023-01-15T13:21:15;20.60;;;7.55;;
28802;SDS011;15949;55.656;37.422;2023-01-15T13:42:21;22.55;;;7.72;;
28802;SDS011;15949;55.656;37.422;2023-01-15T13:47:42;23.58;;;8.35;;
28802;SDS011;15949;55.656;37.422;2023-01-15T13:52:58;22.48;;;7.65;;
28802;SDS011;15949;55.656;37.422;2023-01-15T13:58:27;18.23;;;7.28;;
28802;SDS011;15949;55.656;37.422;2023-01-15T14:03:35;15.27;;;7.13;;
28802;SDS011;15949;55.656;37.422;2023-01-15T14:08:43;20.25;;;7.88;;
28802;SDS011;15949;55.656;37.422;2023-01-15T14:14:10;23.23;;;9.43;;
28802;SDS011;15949;55.656;37.422;2023-01-15T14:30:38;21.55;;;7.63;;
28802;SDS011;15949;55.656;37.422;2023-01-15T14:36:19;20.77;;;8.00;;
28802;SDS011;15949;55.656;37.422;2023-01-15T14:41:31;18.90;;;8.10;;
28802;SDS011;15949;55.656;37.422;2023-01-15T14:47:02;14.20;;;7.50;;
28802;SDS011;15949;55.656;37.422;2023-01-15T14:52:10;14.77;;;8.10;;
28802;SDS011;15949;55.656;37.422;2023-01-15T14:57:16;17.67;;;7.80;;
28802;SDS011;15949;55.656;37.422;2023-01-15T15:02:38;21.38;;;8.85;;
28802;SDS011;15949;55.656;37.422;2023-01-15T15:07:47;15.93;;;10.40;;
28802;SDS011;15949;55.656;37.422;2023-01-15T15:13:18;19.80;;;10.30;;
28802;SDS011;15949;55.656;37.422;2023-01-15T15:24:02;23.65;;;10.15;;
28802;SDS011;15949;55.656;37.422;2023-01-15T15:29:13;19.52;;;9.13;;
28802;SDS011;15949;55.656;37.422;2023-01-15T15:34:29;18.63;;;10.63;;
28802;SDS011;15949;55.656;37.422;2023-01-15T15:39:40;22.73;;;10.05;;
28802;SDS011;15949;55.656;37.422;2023-01-15T15:44:51;20.95;;;9.45;;
28802;SDS011;15949;55.656;37.422;2023-01-15T15:50:23;20.88;;;9.88;;
28802;SDS011;15949;55.656;37.422;2023-01-15T15:55:36;25.15;;;11.02;;
28802;SDS011;15949;55.656;37.422;2023-01-15T16:00:44;23.95;;;11.10;;
28802;SDS011;15949;55.656;37.422;2023-01-15T16:05:57;25.85;;;12.15;;
28802;SDS011;15949;55.656;37.422;2023-01-15T16:11:05;27.95;;;12.00;;
28802;SDS011;15949;55.656;37.422;2023-01-15T16:16:15;24.38;;;11.50;;
28802;SDS011;15949;55.656;37.422;2023-01-15T16:21:25;28.75;;;12.57;;
28802;SDS011;15949;55.656;37.422;2023-01-15T16:26:42;23.55;;;12.65;;
28802;SDS011;15949;55.656;37.422;2023-01-15T16:31:52;19.50;;;11.00;;
28802;SDS011;15949;55.656;37.422;2023-01-15T16:37:00;23.20;;;11.32;;
28802;SDS011;15949;55.656;37.422;2023-01-15T16:42:21;28.02;;;11.32;;
28802;SDS011;15949;55.656;37.422;2023-01-15T16:47:29;23.73;;;10.48;;
28802;SDS011;15949;55.656;37.422;2023-01-15T16:57:42;26.95;;;13.20;;
28802;SDS011;15949;55.656;37.422;2023-01-15T17:02:48;21.98;;;11.95;;
28802;SDS011;15949;55.656;37.422;2023-01-15T17:07:55;26.52;;;12.30;;
28802;SDS011;15949;55.656;37.422;2023-01-15T17:13:01;24.52;;;12.55;;
28802;SDS011;15949;55.656;37.422;2023-01-15T17:18:22;24.52;;;12.77;;
28802;SDS011;15949;55.656;37.422;2023-01-15T17:23:33;29.40;;;12.05;;
28802;SDS011;15949;55.656;37.422;2023-01-15T17:28:41;23.08;;;12.35;;
28802;SDS011;15949;55.656;37.422;2023-01-15T17:33:46;28.77;;;13.55;;
28802;SDS011;15949;55.656;37.422;2023-01-15T17:38:55;29.42;;;12.55;;
28802;SDS011;15949;55.656;37.422;2023-01-15T17:44:00;25.10;;;13.68;;
28802;SDS011;15949;55.656;37.422;2023-01-15T17:49:07;27.25;;;13.10;;
28802;SDS011;15949;55.656;37.422;2023-01-15T17:54:12;26.42;;;13.30;;
28802;SDS011;15949;55.656;37.422;2023-01-15T17:59:38;33.72;;;13.73;;
28802;SDS011;15949;55.656;37.422;2023-01-15T18:05:02;26.00;;;13.13;;
28802;SDS011;15949;55.656;37.422;2023-01-15T18:10:26;26.75;;;13.73;;
28802;SDS011;15949;55.656;37.422;2023-01-15T18:15:32;28.13;;;13.68;;
28802;SDS011;15949;55.656;37.422;2023-01-15T18:20:37;28.92;;;13.05;;
28802;SDS011;15949;55.656;37.422;2023-01-15T18:25:43;25.00;;;13.70;;
28802;SDS011;15949;55.656;37.422;2023-01-15T18:30:51;26.80;;;14.43;;
28802;SDS011;15949;55.656;37.422;2023-01-15T18:36:15;34.55;;;13.75;;
28802;SDS011;15949;55.656;37.422;2023-01-15T18:41:22;27.52;;;13.48;;
28802;SDS011;15949;55.656;37.422;2023-01-15T18:46:40;30.33;;;14.10;;
28802;SDS011;15949;55.656;37.422;2023-01-15T18:51:48;22.98;;;12.73;;
28802;SDS011;15949;55.656;37.422;2023-01-15T18:57:13;27.40;;;13.43;;
28802;SDS011;15949;55.656;37.422;2023-01-15T19:02:20;23.88;;;13.63;;
28802;SDS011;15949;55.656;37.422;2023-01-15T19:07:26;27.23;;;13.32;;
28802;SDS011;15949;55.656;37.422;2023-01-15T19:12:33;25.90;;;13.20;;
28802;SDS011;15949;55.656;37.422;2023-01-15T19:17:39;24.02;;;13.95;;
28802;SDS011;15949;55.656;37.422;2023-01-15T19:23:03;30.90;;;14.35;;
28802;SDS011;15949;55.656;37.422;2023-01-15T19:28:12;30.17;;;14.57;;
28802;SDS011;15949;55.656;37.422;2023-01-15T19:33:19;32.03;;;14.55;;
28802;SDS011;15949;55.656;37.422;2023-01-15T19:38:25;31.10;;;14.30;;
28802;SDS011;15949;55.656;37.422;2023-01-15T19:43:31;30.95;;;14.98;;
28802;SDS011;15949;55.656;37.422;2023-01-15T19:48:54;29.05;;;14.25;;
28802;SDS011;15949;55.656;37.422;2023-01-15T19:54:18;30.98;;;15.35;;
28802;SDS011;15949;55.656;37.422;2023-01-15T19:59:46;31.85;;;15.27;;
28802;SDS011;15949;55.656;37.422;2023-01-15T20:04:51;28.27;;;14.13;;
28802;SDS011;15949;55.656;37.422;2023-01-15T20:09:57;36.15;;;15.48;;
28802;SDS011;15949;55.656;37.422;2023-01-15T20:15:03;27.27;;;14.23;;
28802;SDS011;15949;55.656;37.422;2023-01-15T20:20:09;24.58;;;14.88;;
28802;SDS011;15949;55.656;37.422;2023-01-15T20:25:16;31.88;;;14.82;;
28802;SDS011;15949;55.656;37.422;2023-01-15T20:30:22;31.08;;;14.70;;
28802;SDS011;15949;55.656;37.422;2023-01-15T20:35:29;25.63;;;14.05;;
28802;SDS011;15949;55.656;37.422;2023-01-15T20:40:37;28.02;;;13.77;;
28802;SDS011;15949;55.656;37.422;2023-01-15T20:45:43;29.58;;;14.55;;
28802;SDS011;15949;55.656;37.422;2023-01-15T20:50:48;29.02;;;13.90;;
28802;SDS011;15949;55.656;37.422;2023-01-15T20:56:10;26.58;;;13.60;;
28802;SDS011;15949;55.656;37.422;2023-01-15T21:01:17;27.08;;;14.32;;
28802;SDS011;15949;55.656;37.422;2023-01-15T21:06:23;31.02;;;15.07;;
28802;SDS011;15949;55.656;37.422;2023-01-15T21:11:28;28.20;;;16.25;;
28802;SDS011;15949;55.656;37.422;2023-01-15T21:16:34;29.45;;;15.70;;
28802;SDS011;15949;55.656;37.422;2023-01-15T21:21:40;31.80;;;16.77;;
28802;SDS011;15949;55.656;37.422;2023-01-15T21:26:45;33.80;;;16.33;;
28802;SDS011;15949;55.656;37.422;2023-01-15T21:31:52;30.70;;;15.60;;
28802;SDS011;15949;55.656;37.422;2023-01-15T21:36:58;28.60;;;15.35;;
28802;SDS011;15949;55.656;37.422;2023-01-15T21:42:03;29.10;;;14.32;;
28802;SDS011;15949;55.656;37.422;2023-01-15T21:47:27;26.67;;;14.70;;
28802;SDS011;15949;55.656;37.422;2023-01-15T21:52:33;31.90;;;15.27;;
28802;SDS011;15949;55.656;37.422;2023-01-15T21:57:39;28.58;;;14.90;;
28802;SDS011;15949;55.656;37.422;2023-01-15T22:02:45;33.22;;;15.25;;
28802;SDS011;15949;55.656;37.422;2023-01-15T22:07:51;34.35;;;15.73;;
28802;SDS011;15949;55.656;37.422;2023-01-15T22:12:57;25.60;;;15.13;;
28802;SDS011;15949;55.656;37.422;2023-01-15T22:18:02;29.73;;;14.82;;
28802;SDS011;15949;55.656;37.422;2023-01-15T22:23:08;28.48;;;15.07;;
28802;SDS011;15949;55.656;37.422;2023-01-15T22:28:14;29.65;;;14.80;;
28802;SDS011;15949;55.656;37.422;2023-01-15T22:33:19;28.73;;;14.38;;
28802;SDS011;15949;55.656;37.422;2023-01-15T22:38:25;32.03;;;14.50;;
28802;SDS011;15949;55.656;37.422;2023-01-15T22:43:31;31.65;;;14.90;;
28802;SDS011;15949;55.656;37.422;2023-01-15T22:48:37;27.67;;;14.35;;
28802;SDS011;15949;55.656;37.422;2023-01-15T22:53:43;28.05;;;14.27;;
28802;SDS011;15949;55.656;37.422;2023-01-15T22:58:51;32.90;;;15.40;;
28802;SDS011;15949;55.656;37.422;2023-01-15T23:03:58;31.25;;;14.93;;
28802;SDS011;15949;55.656;37.422;2023-01-15T23:09:04;29.25;;;15.15;;
28802;SDS011;15949;55.656;37.422;2023-01-15T23:14:10;35.05;;;15.15;;
28802;SDS011;15949;55.656;37.422;2023-01-15T23:19:16;27.70;;;14.55;;
28802;SDS011;15949;55.656;37.422;2023-01-15T23:24:23;37.22;;;15.35;;
28802;SDS011;15949;55.656;37.422;2023-01-15T23:29:28;29.25;;;15.15;;
28802;SDS011;15949;55.656;37.422;2023-01-15T23:34:34;31.17;;;15.00;;
28802;SDS011;15949;55.656;37.422;2023-01-15T23:39:39;33.28;;;15.30;;
28802;SDS011;15949;55.656;37.422;2023-01-15T23:44:45;33.47;;;14.25;;
28802;SDS011;15949;55.656;37.422;2023-01-15T23:50:09;41.45;;;14.65;;
28802;SDS011;15949;55.656;37.422;2023-01-15T23:55:15;36.10;;;15.23;;
